sensor_id;sensor_type;location;lat;lon;timestamp;P1;durP1;ratioP1;P2;durP2;ratioP2
64498;SDS011;51087;55.718;21.122;2023-05-07T00:01:12;5.60;;;1.70;;
64498;SDS011;51087;55.718;21.122;2023-05-07T00:03:38;6.40;;;1.63;;
64498;SDS011;51087;55.718;21.122;2023-05-07T00:06:04;3.90;;;1.60;;
64498;SDS011;51087;55.718;21.122;2023-05-07T00:08:29;7.18;;;1.80;;
64498;SDS011;51087;55.718;21.122;2023-05-07T00:10:55;3.00;;;1.60;;
64498;SDS011;51087;55.718;21.122;2023-05-07T00:13:20;4.97;;;1.65;;
64498;SDS011;51087;55.718;21.122;2023-05-07T00:15:45;6.60;;;1.88;;
64498;SDS011;51087;55.718;21.122;2023-05-07T00:18:11;1.95;;;1.40;;
64498;SDS011;51087;55.718;21.122;2023-05-07T00:20:36;16.33;;;1.70;;
64498;SDS011;51087;55.718;21.122;2023-05-07T00:23:02;3.35;;;1.60;;
64498;SDS011;51087;55.718;21.122;2023-05-07T00:25:27;6.95;;;1.73;;
64498;SDS011;51087;55.718;21.122;2023-05-07T00:27:53;7.32;;;1.80;;
64498;SDS011;51087;55.718;21.122;2023-05-07T00:30:18;7.30;;;1.80;;
64498;SDS011;51087;55.718;21.122;2023-05-07T00:32:44;2.05;;;1.30;;
64498;SDS011;51087;55.718;21.122;2023-05-07T00:35:10;3.05;;;1.50;;
64498;SDS011;51087;55.718;21.122;2023-05-07T00:37:36;3.22;;;1.45;;
64498;SDS011;51087;55.718;21.122;2023-05-07T00:40:01;3.47;;;1.67;;
64498;SDS011;51087;55.718;21.122;2023-05-07T00:42:29;6.20;;;1.70;;
64498;SDS011;51087;55.718;21.122;2023-05-07T00:44:57;2.80;;;1.70;;
64498;SDS011;51087;55.718;21.122;2023-05-07T00:47:23;3.90;;;1.60;;
64498;SDS011;51087;55.718;21.122;2023-05-07T00:49:49;4.10;;;1.80;;
64498;SDS011;51087;55.718;21.122;2023-05-07T00:52:15;3.92;;;1.55;;
64498;SDS011;51087;55.718;21.122;2023-05-07T00:54:42;4.07;;;1.95;;
64498;SDS011;51087;55.718;21.122;2023-05-07T00:57:08;6.88;;;1.55;;
64498;SDS011;51087;55.718;21.122;2023-05-07T00:59:36;5.65;;;1.65;;
64498;SDS011;51087;55.718;21.122;2023-05-07T01:02:01;5.50;;;1.70;;
64498;SDS011;51087;55.718;21.122;2023-05-07T01:04:27;4.82;;;1.90;;
64498;SDS011;51087;55.718;21.122;2023-05-07T01:06:53;4.43;;;1.70;;
64498;SDS011;51087;55.718;21.122;2023-05-07T01:09:21;3.20;;;1.90;;
64498;SDS011;51087;55.718;21.122;2023-05-07T01:11:48;5.55;;;1.67;;
64498;SDS011;51087;55.718;21.122;2023-05-07T01:14:15;4.22;;;1.75;;
64498;SDS011;51087;55.718;21.122;2023-05-07T01:16:42;6.47;;;1.40;;
64498;SDS011;51087;55.718;21.122;2023-05-07T01:19:08;1.98;;;1.25;;
64498;SDS011;51087;55.718;21.122;2023-05-07T01:21:36;6.10;;;1.70;;
64498;SDS011;51087;55.718;21.122;2023-05-07T01:24:02;2.90;;;1.73;;
64498;SDS011;51087;55.718;21.122;2023-05-07T01:26:28;3.55;;;1.75;;
64498;SDS011;51087;55.718;21.122;2023-05-07T01:28:54;2.13;;;1.35;;
64498;SDS011;51087;55.718;21.122;2023-05-07T01:31:19;2.83;;;1.67;;
64498;SDS011;51087;55.718;21.122;2023-05-07T01:33:45;2.60;;;1.60;;
64498;SDS011;51087;55.718;21.122;2023-05-07T01:36:13;2.97;;;1.50;;
64498;SDS011;51087;55.718;21.122;2023-05-07T01:38:40;5.53;;;1.63;;
64498;SDS011;51087;55.718;21.122;2023-05-07T01:41:07;2.70;;;1.70;;
64498;SDS011;51087;55.718;21.122;2023-05-07T01:43:32;3.05;;;1.60;;
64498;SDS011;51087;55.718;21.122;2023-05-07T01:45:58;2.67;;;1.45;;
64498;SDS011;51087;55.718;21.122;2023-05-07T01:48:25;4.40;;;1.83;;
64498;SDS011;51087;55.718;21.122;2023-05-07T01:50:51;4.53;;;1.27;;
64498;SDS011;51087;55.718;21.122;2023-05-07T01:53:17;3.33;;;1.58;;
64498;SDS011;51087;55.718;21.122;2023-05-07T01:55:43;2.70;;;1.70;;
64498;SDS011;51087;55.718;21.122;2023-05-07T01:58:08;2.80;;;1.60;;
64498;SDS011;51087;55.718;21.122;2023-05-07T02:00:33;8.55;;;1.73;;
64498;SDS011;51087;55.718;21.122;2023-05-07T02:02:59;6.03;;;1.77;;
64498;SDS011;51087;55.718;21.122;2023-05-07T02:05:24;3.45;;;1.52;;
64498;SDS011;51087;55.718;21.122;2023-05-07T02:07:50;4.07;;;1.50;;
64498;SDS011;51087;55.718;21.122;2023-05-07T02:10:15;2.45;;;1.40;;
64498;SDS011;51087;55.718;21.122;2023-05-07T02:12:41;3.60;;;1.63;;
64498;SDS011;51087;55.718;21.122;2023-05-07T02:15:07;9.13;;;1.38;;
64498;SDS011;51087;55.718;21.122;2023-05-07T02:17:33;4.13;;;1.52;;
64498;SDS011;51087;55.718;21.122;2023-05-07T02:19:58;3.55;;;1.80;;
64498;SDS011;51087;55.718;21.122;2023-05-07T02:22:24;5.60;;;1.80;;
64498;SDS011;51087;55.718;21.122;2023-05-07T02:24:50;4.20;;;1.63;;
64498;SDS011;51087;55.718;21.122;2023-05-07T02:27:16;2.30;;;1.60;;
64498;SDS011;51087;55.718;21.122;2023-05-07T02:29:41;7.45;;;2.13;;
64498;SDS011;51087;55.718;21.122;2023-05-07T02:32:07;3.58;;;2.15;;
64498;SDS011;51087;55.718;21.122;2023-05-07T02:34:32;8.73;;;1.67;;
64498;SDS011;51087;55.718;21.122;2023-05-07T02:36:57;8.48;;;1.83;;
64498;SDS011;51087;55.718;21.122;2023-05-07T02:39:23;5.88;;;1.50;;
64498;SDS011;51087;55.718;21.122;2023-05-07T02:41:48;3.40;;;1.95;;
64498;SDS011;51087;55.718;21.122;2023-05-07T02:44:14;3.70;;;1.70;;
64498;SDS011;51087;55.718;21.122;2023-05-07T02:46:39;5.55;;;2.13;;
64498;SDS011;51087;55.718;21.122;2023-05-07T02:49:05;5.32;;;1.80;;
64498;SDS011;51087;55.718;21.122;2023-05-07T02:51:31;4.00;;;1.40;;
64498;SDS011;51087;55.718;21.122;2023-05-07T02:53:56;6.40;;;1.70;;
64498;SDS011;51087;55.718;21.122;2023-05-07T02:56:21;3.75;;;1.67;;
64498;SDS011;51087;55.718;21.122;2023-05-07T02:58:47;6.75;;;1.85;;
64498;SDS011;51087;55.718;21.122;2023-05-07T03:01:12;7.07;;;1.60;;
64498;SDS011;51087;55.718;21.122;2023-05-07T03:03:39;3.08;;;1.60;;
64498;SDS011;51087;55.718;21.122;2023-05-07T03:06:04;4.70;;;1.75;;
64498;SDS011;51087;55.718;21.122;2023-05-07T03:08:31;5.05;;;1.73;;
64498;SDS011;51087;55.718;21.122;2023-05-07T03:10:57;7.10;;;1.65;;
64498;SDS011;51087;55.718;21.122;2023-05-07T03:13:23;4.63;;;1.40;;
64498;SDS011;51087;55.718;21.122;2023-05-07T03:15:48;4.57;;;1.88;;
64498;SDS011;51087;55.718;21.122;2023-05-07T03:18:14;7.47;;;1.80;;
64498;SDS011;51087;55.718;21.122;2023-05-07T03:20:39;2.72;;;1.50;;
64498;SDS011;51087;55.718;21.122;2023-05-07T03:23:05;3.35;;;1.73;;
64498;SDS011;51087;55.718;21.122;2023-05-07T03:25:31;3.05;;;1.45;;
64498;SDS011;51087;55.718;21.122;2023-05-07T03:27:57;2.13;;;1.42;;
64498;SDS011;51087;55.718;21.122;2023-05-07T03:30:22;11.32;;;1.90;;
64498;SDS011;51087;55.718;21.122;2023-05-07T03:32:48;4.00;;;1.85;;
64498;SDS011;51087;55.718;21.122;2023-05-07T03:35:13;3.92;;;2.10;;
64498;SDS011;51087;55.718;21.122;2023-05-07T03:37:39;5.05;;;2.10;;
64498;SDS011;51087;55.718;21.122;2023-05-07T03:40:05;6.35;;;2.67;;
64498;SDS011;51087;55.718;21.122;2023-05-07T03:42:31;12.10;;;3.08;;
64498;SDS011;51087;55.718;21.122;2023-05-07T03:44:57;12.40;;;3.72;;
64498;SDS011;51087;55.718;21.122;2023-05-07T03:47:22;6.60;;;2.30;;
64498;SDS011;51087;55.718;21.122;2023-05-07T03:49:47;10.07;;;3.40;;
64498;SDS011;51087;55.718;21.122;2023-05-07T03:52:14;8.35;;;3.40;;
64498;SDS011;51087;55.718;21.122;2023-05-07T03:54:39;11.45;;;3.70;;
64498;SDS011;51087;55.718;21.122;2023-05-07T03:57:05;10.07;;;3.42;;
64498;SDS011;51087;55.718;21.122;2023-05-07T03:59:30;6.82;;;2.60;;
64498;SDS011;51087;55.718;21.122;2023-05-07T04:01:56;4.72;;;2.22;;
64498;SDS011;51087;55.718;21.122;2023-05-07T04:04:21;7.70;;;2.13;;
64498;SDS011;51087;55.718;21.122;2023-05-07T04:06:46;2.80;;;1.50;;
64498;SDS011;51087;55.718;21.122;2023-05-07T04:09:12;2.97;;;1.63;;
64498;SDS011;51087;55.718;21.122;2023-05-07T04:11:37;4.80;;;1.83;;
64498;SDS011;51087;55.718;21.122;2023-05-07T04:14:05;5.47;;;1.60;;
64498;SDS011;51087;55.718;21.122;2023-05-07T04:16:30;6.47;;;1.77;;
64498;SDS011;51087;55.718;21.122;2023-05-07T04:18:56;2.92;;;1.70;;
64498;SDS011;51087;55.718;21.122;2023-05-07T04:21:21;3.22;;;1.40;;
64498;SDS011;51087;55.718;21.122;2023-05-07T04:23:47;4.60;;;1.63;;
64498;SDS011;51087;55.718;21.122;2023-05-07T04:26:13;1.90;;;1.40;;
64498;SDS011;51087;55.718;21.122;2023-05-07T04:28:39;5.38;;;1.65;;
64498;SDS011;51087;55.718;21.122;2023-05-07T04:31:05;6.38;;;1.55;;
64498;SDS011;51087;55.718;21.122;2023-05-07T04:33:31;4.95;;;1.70;;
64498;SDS011;51087;55.718;21.122;2023-05-07T04:35:57;3.72;;;1.20;;
64498;SDS011;51087;55.718;21.122;2023-05-07T04:38:27;3.22;;;1.67;;
64498;SDS011;51087;55.718;21.122;2023-05-07T04:40:53;2.70;;;1.30;;
64498;SDS011;51087;55.718;21.122;2023-05-07T04:43:19;2.28;;;1.40;;
64498;SDS011;51087;55.718;21.122;2023-05-07T04:45:45;4.85;;;1.60;;
64498;SDS011;51087;55.718;21.122;2023-05-07T04:48:11;2.28;;;1.60;;
64498;SDS011;51087;55.718;21.122;2023-05-07T04:50:36;4.68;;;1.60;;
64498;SDS011;51087;55.718;21.122;2023-05-07T04:53:01;5.88;;;1.60;;
64498;SDS011;51087;55.718;21.122;2023-05-07T04:55:28;3.15;;;1.65;;
64498;SDS011;51087;55.718;21.122;2023-05-07T04:57:53;5.15;;;1.52;;
64498;SDS011;51087;55.718;21.122;2023-05-07T05:00:19;2.75;;;1.80;;
64498;SDS011;51087;55.718;21.122;2023-05-07T05:02:45;2.83;;;1.75;;
64498;SDS011;51087;55.718;21.122;2023-05-07T05:05:10;3.15;;;1.90;;
64498;SDS011;51087;55.718;21.122;2023-05-07T05:07:36;3.13;;;1.98;;
64498;SDS011;51087;55.718;21.122;2023-05-07T05:10:02;3.15;;;1.65;;
64498;SDS011;51087;55.718;21.122;2023-05-07T05:12:29;5.25;;;2.08;;
64498;SDS011;51087;55.718;21.122;2023-05-07T05:14:55;2.85;;;1.50;;
64498;SDS011;51087;55.718;21.122;2023-05-07T05:17:20;2.92;;;1.40;;
64498;SDS011;51087;55.718;21.122;2023-05-07T05:19:46;2.65;;;1.42;;
64498;SDS011;51087;55.718;21.122;2023-05-07T05:22:11;2.90;;;1.60;;
64498;SDS011;51087;55.718;21.122;2023-05-07T05:24:36;6.15;;;1.80;;
64498;SDS011;51087;55.718;21.122;2023-05-07T05:27:02;3.47;;;1.38;;
64498;SDS011;51087;55.718;21.122;2023-05-07T05:29:27;9.50;;;1.70;;
64498;SDS011;51087;55.718;21.122;2023-05-07T05:31:53;4.80;;;1.33;;
64498;SDS011;51087;55.718;21.122;2023-05-07T05:34:18;5.72;;;1.48;;
64498;SDS011;51087;55.718;21.122;2023-05-07T05:36:47;3.65;;;1.50;;
64498;SDS011;51087;55.718;21.122;2023-05-07T05:39:12;4.47;;;1.33;;
64498;SDS011;51087;55.718;21.122;2023-05-07T05:41:38;2.50;;;1.35;;
64498;SDS011;51087;55.718;21.122;2023-05-07T05:44:03;3.97;;;1.42;;
64498;SDS011;51087;55.718;21.122;2023-05-07T05:46:29;5.18;;;1.25;;
64498;SDS011;51087;55.718;21.122;2023-05-07T05:48:54;3.20;;;1.45;;
64498;SDS011;51087;55.718;21.122;2023-05-07T05:51:20;3.90;;;1.30;;
64498;SDS011;51087;55.718;21.122;2023-05-07T05:53:46;2.65;;;1.60;;
64498;SDS011;51087;55.718;21.122;2023-05-07T05:56:11;4.00;;;1.20;;
64498;SDS011;51087;55.718;21.122;2023-05-07T05:58:37;2.72;;;1.30;;
64498;SDS011;51087;55.718;21.122;2023-05-07T06:01:02;4.72;;;1.30;;
64498;SDS011;51087;55.718;21.122;2023-05-07T06:03:28;3.50;;;1.40;;
64498;SDS011;51087;55.718;21.122;2023-05-07T06:05:53;5.07;;;1.50;;
64498;SDS011;51087;55.718;21.122;2023-05-07T06:08:19;2.40;;;1.40;;
64498;SDS011;51087;55.718;21.122;2023-05-07T06:10:44;2.65;;;1.33;;
64498;SDS011;51087;55.718;21.122;2023-05-07T06:13:10;2.90;;;1.40;;
64498;SDS011;51087;55.718;21.122;2023-05-07T06:15:36;8.38;;;1.60;;
64498;SDS011;51087;55.718;21.122;2023-05-07T06:18:01;4.50;;;1.65;;
64498;SDS011;51087;55.718;21.122;2023-05-07T06:20:27;2.83;;;1.30;;
64498;SDS011;51087;55.718;21.122;2023-05-07T06:22:52;2.40;;;1.50;;
64498;SDS011;51087;55.718;21.122;2023-05-07T06:25:17;2.85;;;1.60;;
64498;SDS011;51087;55.718;21.122;2023-05-07T06:27:43;2.28;;;1.40;;
64498;SDS011;51087;55.718;21.122;2023-05-07T06:30:08;1.92;;;1.40;;
64498;SDS011;51087;55.718;21.122;2023-05-07T06:32:34;2.20;;;1.20;;
64498;SDS011;51087;55.718;21.122;2023-05-07T06:34:59;6.10;;;1.48;;
64498;SDS011;51087;55.718;21.122;2023-05-07T06:37:25;2.58;;;1.27;;
64498;SDS011;51087;55.718;21.122;2023-05-07T06:39:50;5.15;;;1.50;;
64498;SDS011;51087;55.718;21.122;2023-05-07T06:42:16;3.53;;;1.30;;
64498;SDS011;51087;55.718;21.122;2023-05-07T06:44:41;2.13;;;1.30;;
64498;SDS011;51087;55.718;21.122;2023-05-07T06:47:07;7.43;;;1.40;;
64498;SDS011;51087;55.718;21.122;2023-05-07T06:49:32;3.25;;;1.38;;
64498;SDS011;51087;55.718;21.122;2023-05-07T06:51:58;1.50;;;1.05;;
64498;SDS011;51087;55.718;21.122;2023-05-07T06:54:23;2.17;;;1.17;;
64498;SDS011;51087;55.718;21.122;2023-05-07T06:56:49;2.70;;;1.30;;
64498;SDS011;51087;55.718;21.122;2023-05-07T06:59:15;4.03;;;1.40;;
64498;SDS011;51087;55.718;21.122;2023-05-07T07:01:40;2.55;;;1.17;;
64498;SDS011;51087;55.718;21.122;2023-05-07T07:04:06;5.47;;;1.27;;
64498;SDS011;51087;55.718;21.122;2023-05-07T07:06:31;2.30;;;1.20;;
64498;SDS011;51087;55.718;21.122;2023-05-07T07:08:57;2.28;;;1.00;;
64498;SDS011;51087;55.718;21.122;2023-05-07T07:11:23;13.35;;;2.10;;
64498;SDS011;51087;55.718;21.122;2023-05-07T07:13:49;3.08;;;1.42;;
64498;SDS011;51087;55.718;21.122;2023-05-07T07:16:15;2.25;;;1.27;;
64498;SDS011;51087;55.718;21.122;2023-05-07T07:18:41;4.53;;;1.30;;
64498;SDS011;51087;55.718;21.122;2023-05-07T07:21:06;2.92;;;1.20;;
64498;SDS011;51087;55.718;21.122;2023-05-07T07:23:32;2.38;;;1.20;;
64498;SDS011;51087;55.718;21.122;2023-05-07T07:25:57;2.15;;;1.20;;
64498;SDS011;51087;55.718;21.122;2023-05-07T07:28:23;2.58;;;1.20;;
64498;SDS011;51087;55.718;21.122;2023-05-07T07:30:48;2.45;;;1.30;;
64498;SDS011;51087;55.718;21.122;2023-05-07T07:33:14;2.30;;;1.30;;
64498;SDS011;51087;55.718;21.122;2023-05-07T07:35:40;3.20;;;1.40;;
64498;SDS011;51087;55.718;21.122;2023-05-07T07:38:05;3.22;;;1.10;;
64498;SDS011;51087;55.718;21.122;2023-05-07T07:40:31;1.92;;;1.17;;
64498;SDS011;51087;55.718;21.122;2023-05-07T07:42:56;2.08;;;1.13;;
64498;SDS011;51087;55.718;21.122;2023-05-07T07:45:22;1.50;;;1.13;;
64498;SDS011;51087;55.718;21.122;2023-05-07T07:47:47;6.85;;;1.30;;
64498;SDS011;51087;55.718;21.122;2023-05-07T07:50:13;1.20;;;1.02;;
64498;SDS011;51087;55.718;21.122;2023-05-07T07:52:39;5.35;;;1.60;;
64498;SDS011;51087;55.718;21.122;2023-05-07T07:55:05;3.17;;;1.30;;
64498;SDS011;51087;55.718;21.122;2023-05-07T07:57:31;6.85;;;1.20;;
64498;SDS011;51087;55.718;21.122;2023-05-07T07:59:57;4.50;;;1.40;;
64498;SDS011;51087;55.718;21.122;2023-05-07T08:02:22;6.30;;;1.42;;
64498;SDS011;51087;55.718;21.122;2023-05-07T08:04:48;3.60;;;1.20;;
64498;SDS011;51087;55.718;21.122;2023-05-07T08:07:13;1.58;;;1.10;;
64498;SDS011;51087;55.718;21.122;2023-05-07T08:09:38;2.78;;;1.20;;
64498;SDS011;51087;55.718;21.122;2023-05-07T08:12:05;3.50;;;1.10;;
64498;SDS011;51087;55.718;21.122;2023-05-07T08:14:31;5.32;;;1.40;;
64498;SDS011;51087;55.718;21.122;2023-05-07T08:16:56;2.78;;;1.30;;
64498;SDS011;51087;55.718;21.122;2023-05-07T08:19:22;1.73;;;1.17;;
64498;SDS011;51087;55.718;21.122;2023-05-07T08:21:47;6.43;;;1.10;;
64498;SDS011;51087;55.718;21.122;2023-05-07T08:24:13;1.73;;;1.30;;
64498;SDS011;51087;55.718;21.122;2023-05-07T08:26:39;1.92;;;1.30;;
64498;SDS011;51087;55.718;21.122;2023-05-07T08:29:05;3.45;;;1.58;;
64498;SDS011;51087;55.718;21.122;2023-05-07T08:31:30;3.38;;;1.25;;
64498;SDS011;51087;55.718;21.122;2023-05-07T08:33:57;10.25;;;1.60;;
64498;SDS011;51087;55.718;21.122;2023-05-07T08:36:23;2.35;;;1.10;;
64498;SDS011;51087;55.718;21.122;2023-05-07T08:38:48;1.63;;;1.17;;
64498;SDS011;51087;55.718;21.122;2023-05-07T08:41:14;2.55;;;1.40;;
64498;SDS011;51087;55.718;21.122;2023-05-07T08:43:41;2.45;;;1.30;;
64498;SDS011;51087;55.718;21.122;2023-05-07T08:46:06;3.00;;;1.13;;
64498;SDS011;51087;55.718;21.122;2023-05-07T08:48:34;4.82;;;1.30;;
64498;SDS011;51087;55.718;21.122;2023-05-07T08:51:00;9.18;;;1.90;;
64498;SDS011;51087;55.718;21.122;2023-05-07T08:53:26;3.65;;;1.20;;
64498;SDS011;51087;55.718;21.122;2023-05-07T08:55:51;5.28;;;1.38;;
64498;SDS011;51087;55.718;21.122;2023-05-07T08:58:18;3.95;;;1.42;;
64498;SDS011;51087;55.718;21.122;2023-05-07T09:00:43;5.72;;;1.38;;
64498;SDS011;51087;55.718;21.122;2023-05-07T09:03:09;1.80;;;1.20;;
64498;SDS011;51087;55.718;21.122;2023-05-07T09:05:37;4.20;;;1.30;;
64498;SDS011;51087;55.718;21.122;2023-05-07T09:08:03;4.63;;;1.40;;
64498;SDS011;51087;55.718;21.122;2023-05-07T09:10:32;2.20;;;1.33;;
64498;SDS011;51087;55.718;21.122;2023-05-07T09:12:58;12.45;;;1.40;;
64498;SDS011;51087;55.718;21.122;2023-05-07T09:15:23;4.70;;;1.33;;
64498;SDS011;51087;55.718;21.122;2023-05-07T09:17:50;4.30;;;1.23;;
64498;SDS011;51087;55.718;21.122;2023-05-07T09:20:15;1.92;;;1.13;;
64498;SDS011;51087;55.718;21.122;2023-05-07T09:22:41;4.18;;;1.27;;
64498;SDS011;51087;55.718;21.122;2023-05-07T09:25:07;3.90;;;1.38;;
64498;SDS011;51087;55.718;21.122;2023-05-07T09:27:34;1.55;;;1.20;;
64498;SDS011;51087;55.718;21.122;2023-05-07T09:30:02;6.28;;;1.30;;
64498;SDS011;51087;55.718;21.122;2023-05-07T09:32:34;6.55;;;1.23;;
64498;SDS011;51087;55.718;21.122;2023-05-07T09:35:01;3.53;;;1.50;;
64498;SDS011;51087;55.718;21.122;2023-05-07T09:37:28;5.80;;;1.40;;
64498;SDS011;51087;55.718;21.122;2023-05-07T09:39:55;2.95;;;1.30;;
64498;SDS011;51087;55.718;21.122;2023-05-07T09:42:24;5.43;;;1.60;;
64498;SDS011;51087;55.718;21.122;2023-05-07T09:44:51;2.95;;;1.40;;
64498;SDS011;51087;55.718;21.122;2023-05-07T09:47:20;2.85;;;1.20;;
64498;SDS011;51087;55.718;21.122;2023-05-07T09:49:49;5.75;;;1.33;;
64498;SDS011;51087;55.718;21.122;2023-05-07T09:52:15;2.45;;;1.33;;
64498;SDS011;51087;55.718;21.122;2023-05-07T09:54:41;4.45;;;1.40;;
64498;SDS011;51087;55.718;21.122;2023-05-07T09:57:09;3.97;;;1.20;;
64498;SDS011;51087;55.718;21.122;2023-05-07T09:59:37;5.20;;;1.20;;
64498;SDS011;51087;55.718;21.122;2023-05-07T10:02:03;5.47;;;1.42;;
64498;SDS011;51087;55.718;21.122;2023-05-07T10:04:30;1.45;;;1.00;;
64498;SDS011;51087;55.718;21.122;2023-05-07T10:06:56;6.97;;;1.27;;
64498;SDS011;51087;55.718;21.122;2023-05-07T10:09:23;4.47;;;1.20;;
64498;SDS011;51087;55.718;21.122;2023-05-07T10:11:50;3.90;;;1.30;;
64498;SDS011;51087;55.718;21.122;2023-05-07T10:14:16;7.78;;;1.30;;
64498;SDS011;51087;55.718;21.122;2023-05-07T10:16:42;4.05;;;1.23;;
64498;SDS011;51087;55.718;21.122;2023-05-07T10:19:08;2.40;;;1.20;;
64498;SDS011;51087;55.718;21.122;2023-05-07T10:21:37;2.78;;;1.15;;
64498;SDS011;51087;55.718;21.122;2023-05-07T10:24:19;3.97;;;1.35;;
64498;SDS011;51087;55.718;21.122;2023-05-07T10:26:57;3.83;;;1.10;;
64498;SDS011;51087;55.718;21.122;2023-05-07T10:35:00;1.73;;;1.00;;
64498;SDS011;51087;55.718;21.122;2023-05-07T10:37:31;3.35;;;1.30;;
64498;SDS011;51087;55.718;21.122;2023-05-07T10:40:15;1.45;;;1.20;;
64498;SDS011;51087;55.718;21.122;2023-05-07T10:45:27;3.30;;;1.20;;
64498;SDS011;51087;55.718;21.122;2023-05-07T10:50:39;4.20;;;1.85;;
64498;SDS011;51087;55.718;21.122;2023-05-07T10:55:41;3.10;;;1.15;;
64498;SDS011;51087;55.718;21.122;2023-05-07T10:58:23;5.15;;;1.13;;
64498;SDS011;51087;55.718;21.122;2023-05-07T11:01:02;2.10;;;1.25;;
64498;SDS011;51087;55.718;21.122;2023-05-07T11:03:28;2.15;;;1.40;;
64498;SDS011;51087;55.718;21.122;2023-05-07T11:06:13;6.60;;;1.38;;
64498;SDS011;51087;55.718;21.122;2023-05-07T11:08:53;4.47;;;1.58;;
64498;SDS011;51087;55.718;21.122;2023-05-07T11:11:18;3.10;;;1.15;;
64498;SDS011;51087;55.718;21.122;2023-05-07T11:13:47;2.47;;;1.33;;
64498;SDS011;51087;55.718;21.122;2023-05-07T11:16:20;3.15;;;1.30;;
64498;SDS011;51087;55.718;21.122;2023-05-07T11:21:16;3.60;;;1.00;;
64498;SDS011;51087;55.718;21.122;2023-05-07T11:23:57;3.92;;;1.27;;
64498;SDS011;51087;55.718;21.122;2023-05-07T11:26:24;5.30;;;1.40;;
64498;SDS011;51087;55.718;21.122;2023-05-07T11:28:50;4.75;;;1.40;;
64498;SDS011;51087;55.718;21.122;2023-05-07T11:31:20;7.25;;;1.42;;
64498;SDS011;51087;55.718;21.122;2023-05-07T11:33:47;2.45;;;1.20;;
64498;SDS011;51087;55.718;21.122;2023-05-07T11:36:13;6.80;;;1.25;;
64498;SDS011;51087;55.718;21.122;2023-05-07T11:38:38;4.75;;;1.45;;
64498;SDS011;51087;55.718;21.122;2023-05-07T11:41:04;2.63;;;1.20;;
64498;SDS011;51087;55.718;21.122;2023-05-07T11:43:30;3.35;;;1.20;;
64498;SDS011;51087;55.718;21.122;2023-05-07T11:46:05;4.47;;;1.20;;
64498;SDS011;51087;55.718;21.122;2023-05-07T11:48:32;3.75;;;1.15;;
64498;SDS011;51087;55.718;21.122;2023-05-07T11:53:27;2.85;;;1.10;;
64498;SDS011;51087;55.718;21.122;2023-05-07T11:55:54;8.13;;;1.63;;
64498;SDS011;51087;55.718;21.122;2023-05-07T11:58:21;2.60;;;1.15;;
64498;SDS011;51087;55.718;21.122;2023-05-07T12:00:51;3.85;;;1.30;;
64498;SDS011;51087;55.718;21.122;2023-05-07T12:03:17;6.25;;;1.50;;
64498;SDS011;51087;55.718;21.122;2023-05-07T12:05:46;11.65;;;1.42;;
64498;SDS011;51087;55.718;21.122;2023-05-07T12:08:15;4.57;;;1.40;;
64498;SDS011;51087;55.718;21.122;2023-05-07T12:10:42;4.85;;;1.20;;
64498;SDS011;51087;55.718;21.122;2023-05-07T12:13:17;4.15;;;1.33;;
64498;SDS011;51087;55.718;21.122;2023-05-07T12:15:44;4.20;;;1.30;;
64498;SDS011;51087;55.718;21.122;2023-05-07T12:18:10;6.45;;;1.20;;
64498;SDS011;51087;55.718;21.122;2023-05-07T12:20:37;8.23;;;1.35;;
64498;SDS011;51087;55.718;21.122;2023-05-07T12:23:03;3.47;;;1.10;;
64498;SDS011;51087;55.718;21.122;2023-05-07T12:25:35;2.78;;;1.10;;
64498;SDS011;51087;55.718;21.122;2023-05-07T12:28:02;3.53;;;1.27;;
64498;SDS011;51087;55.718;21.122;2023-05-07T12:30:30;13.60;;;1.40;;
64498;SDS011;51087;55.718;21.122;2023-05-07T12:32:56;5.20;;;1.15;;
64498;SDS011;51087;55.718;21.122;2023-05-07T12:37:54;3.83;;;1.20;;
64498;SDS011;51087;55.718;21.122;2023-05-07T12:40:25;4.88;;;1.25;;
64498;SDS011;51087;55.718;21.122;2023-05-07T12:45:46;2.03;;;1.00;;
64498;SDS011;51087;55.718;21.122;2023-05-07T12:48:13;4.50;;;1.00;;
64498;SDS011;51087;55.718;21.122;2023-05-07T12:50:39;4.97;;;1.30;;
64498;SDS011;51087;55.718;21.122;2023-05-07T12:53:04;4.55;;;1.38;;
64498;SDS011;51087;55.718;21.122;2023-05-07T12:55:31;3.60;;;1.00;;
64498;SDS011;51087;55.718;21.122;2023-05-07T12:57:57;4.15;;;1.10;;
64498;SDS011;51087;55.718;21.122;2023-05-07T13:00:35;3.55;;;1.10;;
64498;SDS011;51087;55.718;21.122;2023-05-07T13:03:02;7.60;;;1.40;;
64498;SDS011;51087;55.718;21.122;2023-05-07T13:05:27;1.80;;;1.20;;
64498;SDS011;51087;55.718;21.122;2023-05-07T13:07:53;3.10;;;1.15;;
64498;SDS011;51087;55.718;21.122;2023-05-07T13:10:19;4.00;;;1.15;;
64498;SDS011;51087;55.718;21.122;2023-05-07T13:12:45;4.45;;;1.30;;
64498;SDS011;51087;55.718;21.122;2023-05-07T13:15:10;4.47;;;1.10;;
64498;SDS011;51087;55.718;21.122;2023-05-07T13:17:35;6.88;;;1.30;;
64498;SDS011;51087;55.718;21.122;2023-05-07T13:20:01;3.33;;;1.30;;
64498;SDS011;51087;55.718;21.122;2023-05-07T13:22:26;2.63;;;1.10;;
64498;SDS011;51087;55.718;21.122;2023-05-07T13:24:51;9.07;;;1.30;;
64498;SDS011;51087;55.718;21.122;2023-05-07T13:27:17;2.35;;;1.25;;
64498;SDS011;51087;55.718;21.122;2023-05-07T13:29:44;10.57;;;1.05;;
64498;SDS011;51087;55.718;21.122;2023-05-07T13:32:09;2.47;;;1.00;;
64498;SDS011;51087;55.718;21.122;2023-05-07T13:34:35;2.38;;;1.17;;
64498;SDS011;51087;55.718;21.122;2023-05-07T13:37:00;4.40;;;1.27;;
64498;SDS011;51087;55.718;21.122;2023-05-07T13:39:26;3.90;;;1.55;;
64498;SDS011;51087;55.718;21.122;2023-05-07T13:41:51;5.13;;;1.17;;
64498;SDS011;51087;55.718;21.122;2023-05-07T13:44:16;4.55;;;1.30;;
64498;SDS011;51087;55.718;21.122;2023-05-07T13:46:42;4.90;;;1.30;;
64498;SDS011;51087;55.718;21.122;2023-05-07T13:49:07;2.35;;;1.20;;
64498;SDS011;51087;55.718;21.122;2023-05-07T13:51:33;4.53;;;1.25;;
64498;SDS011;51087;55.718;21.122;2023-05-07T13:53:58;2.42;;;1.40;;
64498;SDS011;51087;55.718;21.122;2023-05-07T13:56:23;2.95;;;1.13;;
64498;SDS011;51087;55.718;21.122;2023-05-07T13:58:49;3.13;;;1.20;;
64498;SDS011;51087;55.718;21.122;2023-05-07T14:01:14;2.88;;;1.10;;
64498;SDS011;51087;55.718;21.122;2023-05-07T14:03:40;2.08;;;1.02;;
64498;SDS011;51087;55.718;21.122;2023-05-07T14:06:06;2.92;;;1.20;;
64498;SDS011;51087;55.718;21.122;2023-05-07T14:08:31;2.78;;;1.20;;
64498;SDS011;51087;55.718;21.122;2023-05-07T14:10:57;4.63;;;1.15;;
64498;SDS011;51087;55.718;21.122;2023-05-07T14:13:22;4.47;;;1.52;;
64498;SDS011;51087;55.718;21.122;2023-05-07T14:15:48;2.75;;;1.10;;
64498;SDS011;51087;55.718;21.122;2023-05-07T14:18:14;2.15;;;1.10;;
64498;SDS011;51087;55.718;21.122;2023-05-07T14:20:40;1.40;;;1.00;;
64498;SDS011;51087;55.718;21.122;2023-05-07T14:23:05;2.63;;;1.00;;
64498;SDS011;51087;55.718;21.122;2023-05-07T14:25:31;5.78;;;1.00;;
64498;SDS011;51087;55.718;21.122;2023-05-07T14:27:57;4.05;;;1.10;;
64498;SDS011;51087;55.718;21.122;2023-05-07T14:30:22;8.63;;;1.27;;
64498;SDS011;51087;55.718;21.122;2023-05-07T14:32:49;2.75;;;1.33;;
64498;SDS011;51087;55.718;21.122;2023-05-07T14:35:15;5.53;;;1.40;;
64498;SDS011;51087;55.718;21.122;2023-05-07T14:37:41;6.82;;;1.23;;
64498;SDS011;51087;55.718;21.122;2023-05-07T14:40:09;3.70;;;1.17;;
64498;SDS011;51087;55.718;21.122;2023-05-07T14:42:35;1.10;;;1.00;;
64498;SDS011;51087;55.718;21.122;2023-05-07T14:45:01;1.90;;;1.02;;
64498;SDS011;51087;55.718;21.122;2023-05-07T14:47:27;3.47;;;1.13;;
64498;SDS011;51087;55.718;21.122;2023-05-07T14:49:52;1.83;;;1.00;;
64498;SDS011;51087;55.718;21.122;2023-05-07T14:52:18;6.63;;;1.27;;